首页
METAR-TAF:

METAR-TAF

机场 :

扎黑丹機場

扎黑丹, 伊朗

纬度: 29-28N, 经度: 060-53E, 海拔: 1370米

当前天气观测

该预报发布于37分钟前的08:30 UTC
风速12节,风向东南
温度 10°C
湿度 32%
气压 1022 hPa
能见度10公里或以上
1500米以下无云,无积雨云

METAR: OIZH 180830Z 14012KT CAVOK 10/M06 Q1021 A3017

时间: 12:37 (09:07 UTC)

预报

该预报发布于3小时和37分钟前的05:30 UTC
预报有效从18日的 06点(UTC)到 19日的 12点(UTC)
风速10节,风向东转东南
能見度: 7000
短暂存在
从 19日的 08点(UTC)到 19日的 12点(UTC)
风速20节,风向西转西南
能見度: 4000
扬沙

TAF: OIZH 180530Z 1806/1912 12010KT 7000 NSC TEMPO 1908/1912 24020KT 4000 SA NSC

超过4000个机场的气象观测和天气预报(METAR&TAF报告)。

可查询的气象台以黄色和红色小点在地图上表示。

将鼠标移到小点上方,可查看气象台名称。

然后点击查看天气观测和预报。

如需切换地图:点击带黑十字的绿色按钮放大地图;点击带横线的绿色按钮缩小地图;或者点击绿色箭头查看邻近地区的地图。


METAR-TAF: